createdAt,value
2022-12-25T00:01:39.203Z,4.69
2022-12-25T00:04:09.192Z,5.01
2022-12-25T00:06:37.829Z,5.24
2022-12-25T00:09:07.066Z,5.48
2022-12-25T00:11:35.926Z,5.62
2022-12-25T00:14:04.567Z,5.55
2022-12-25T00:16:33.176Z,4.60
2022-12-25T00:19:02.174Z,4.80
2022-12-25T00:21:33.633Z,4.11
2022-12-25T00:24:03.602Z,3.50
2022-12-25T00:26:32.311Z,3.50
2022-12-25T00:29:02.677Z,3.54
2022-12-25T00:31:31.237Z,3.53
2022-12-25T00:33:59.495Z,3.97
2022-12-25T00:36:28.233Z,4.05
2022-12-25T00:38:59.501Z,4.28
2022-12-25T00:41:43.565Z,4.36
2022-12-25T00:44:14.982Z,4.05
2022-12-25T00:46:44.083Z,3.77
2022-12-25T00:49:14.062Z,4.08
2022-12-25T00:51:42.606Z,3.40
2022-12-25T00:54:13.463Z,3.56
2022-12-25T00:56:41.936Z,3.59
2022-12-25T00:59:10.359Z,3.42
2022-12-25T01:01:40.499Z,3.75
2022-12-25T01:04:11.528Z,3.70
2022-12-25T01:06:40.493Z,3.64
2022-12-25T01:09:26.496Z,3.67
2022-12-25T01:11:57.437Z,3.69
2022-12-25T01:14:25.895Z,3.71
2022-12-25T01:16:54.353Z,3.78
2022-12-25T01:19:23.051Z,3.53
2022-12-25T01:21:51.990Z,3.71
2022-12-25T01:24:21.350Z,3.99
2022-12-25T01:26:51.941Z,4.33
2022-12-25T01:29:21.525Z,4.38
2022-12-25T01:31:49.928Z,4.02
2022-12-25T01:34:18.581Z,3.97
2022-12-25T01:36:47.104Z,4.14
2022-12-25T01:39:15.735Z,4.60
2022-12-25T01:41:44.405Z,4.09
2022-12-25T01:44:46.036Z,3.98
2022-12-25T01:47:19.760Z,4.12
2022-12-25T01:49:50.905Z,4.42
2022-12-25T01:52:24.477Z,4.67
2022-12-25T01:54:55.667Z,4.84
2022-12-25T01:57:27.123Z,5.07
2022-12-25T01:59:57.028Z,5.35
2022-12-25T02:02:28.709Z,5.55
2022-12-25T02:05:01.025Z,5.74
2022-12-25T02:07:31.040Z,5.87
2022-12-25T02:10:00.172Z,5.63
2022-12-25T02:12:31.830Z,5.66
2022-12-25T02:15:05.935Z,5.79
2022-12-25T02:17:43.002Z,5.98
2022-12-25T02:20:33.959Z,5.87
2022-12-25T02:23:31.594Z,5.55
2022-12-25T02:26:16.088Z,5.80
2022-12-25T02:28:53.919Z,5.10
2022-12-25T02:31:29.035Z,4.45
2022-12-25T02:34:03.105Z,4.33
2022-12-25T02:36:37.135Z,4.32
2022-12-25T02:39:30.433Z,4.33
2022-12-25T02:42:04.064Z,4.39
2022-12-25T02:44:57.789Z,4.66
2022-12-25T02:47:44.519Z,4.80
2022-12-25T02:50:32.493Z,4.84
2022-12-25T02:53:22.351Z,4.94
2022-12-25T02:56:09.554Z,4.67
2022-12-25T02:58:58.323Z,4.53
2022-12-25T03:01:48.590Z,4.33
2022-12-25T03:04:41.674Z,4.45
2022-12-25T03:07:13.390Z,4.49
2022-12-25T03:10:05.937Z,4.15
2022-12-25T03:12:42.822Z,4.16
2022-12-25T03:15:30.604Z,4.09
2022-12-25T03:18:06.362Z,4.32
2022-12-25T03:20:54.888Z,3.69
2022-12-25T03:23:45.677Z,3.60
2022-12-25T03:26:30.908Z,3.80
2022-12-25T03:29:00.798Z,4.06
2022-12-25T03:31:40.801Z,4.06
2022-12-25T03:34:41.066Z,3.60
2022-12-25T03:37:38.927Z,3.20
2022-12-25T03:40:34.747Z,2.94
2022-12-25T03:43:33.026Z,2.94
2022-12-25T03:46:27.962Z,2.83
2022-12-25T03:49:19.566Z,3.09
2022-12-25T03:52:10.359Z,3.42
2022-12-25T03:54:58.413Z,3.16
2022-12-25T03:57:44.585Z,3.22
2022-12-25T04:00:31.046Z,2.77
2022-12-25T04:03:16.717Z,2.68
2022-12-25T04:06:04.587Z,2.77
2022-12-25T04:08:52.277Z,2.53
2022-12-25T04:11:38.408Z,2.43
2022-12-25T04:14:23.984Z,2.33
2022-12-25T04:17:10.076Z,2.37
2022-12-25T04:19:52.469Z,2.41
2022-12-25T04:22:40.074Z,2.48
2022-12-25T04:25:28.112Z,2.37
2022-12-25T04:28:19.841Z,2.50
2022-12-25T04:31:05.912Z,2.41
2022-12-25T04:33:52.235Z,2.51
2022-12-25T04:36:20.535Z,2.46
2022-12-25T04:38:49.395Z,2.47
2022-12-25T04:41:19.361Z,2.53
2022-12-25T04:43:48.339Z,2.56
2022-12-25T04:46:16.818Z,2.54
2022-12-25T04:48:45.349Z,2.51
2022-12-25T04:51:16.254Z,2.34
2022-12-25T04:53:45.740Z,1.94
2022-12-25T04:56:17.665Z,1.99
2022-12-25T04:58:52.613Z,1.89
2022-12-25T05:01:21.629Z,1.71
2022-12-25T05:03:50.364Z,1.68
2022-12-25T05:06:18.990Z,1.78
2022-12-25T05:08:48.009Z,1.68
2022-12-25T05:11:16.809Z,1.81
2022-12-25T05:13:45.623Z,1.91
2022-12-25T05:16:18.697Z,1.78
2022-12-25T05:18:50.633Z,1.88
2022-12-25T05:21:23.888Z,1.82
2022-12-25T05:23:53.341Z,1.75
2022-12-25T05:26:24.421Z,1.78
2022-12-25T05:28:53.181Z,1.79
2022-12-25T05:31:24.424Z,1.74
2022-12-25T05:33:53.627Z,1.74
2022-12-25T05:36:22.292Z,1.74
2022-12-25T05:38:51.944Z,1.72
2022-12-25T05:41:20.727Z,1.81
2022-12-25T05:43:51.500Z,2.01
2022-12-25T05:46:24.601Z,1.92
2022-12-25T05:48:54.162Z,1.77
2022-12-25T05:51:22.514Z,1.48
2022-12-25T05:53:51.296Z,1.31
2022-12-25T05:56:19.459Z,1.15
2022-12-25T05:58:47.887Z,1.12
2022-12-25T06:01:21.873Z,1.07
2022-12-25T06:03:52.982Z,1.16
2022-12-25T06:06:21.421Z,1.15
2022-12-25T06:08:51.276Z,1.17
2022-12-25T06:11:19.918Z,1.16
2022-12-25T06:13:52.622Z,1.13
2022-12-25T06:16:22.425Z,1.07
2022-12-25T06:18:58.756Z,0.99
2022-12-25T06:21:27.869Z,1.16
2022-12-25T06:23:56.627Z,1.29
2022-12-25T06:26:24.933Z,1.24
2022-12-25T06:28:54.133Z,1.20
2022-12-25T06:31:26.348Z,1.26
2022-12-25T06:33:56.922Z,1.22
2022-12-25T06:36:27.505Z,1.27
2022-12-25T06:38:57.308Z,1.34
2022-12-25T06:41:30.861Z,1.23
2022-12-25T06:44:00.602Z,1.27
2022-12-25T06:46:30.852Z,1.34
2022-12-25T06:49:03.333Z,1.40
2022-12-25T06:51:33.556Z,1.54
2022-12-25T06:54:04.352Z,1.50
2022-12-25T06:56:35.396Z,1.48
2022-12-25T06:59:06.645Z,1.51
2022-12-25T07:01:38.168Z,1.46
2022-12-25T07:04:17.210Z,1.40
2022-12-25T07:06:45.677Z,1.37
2022-12-25T07:09:14.200Z,1.47
2022-12-25T07:11:42.792Z,1.48
2022-12-25T07:14:23.427Z,1.46
2022-12-25T07:16:53.470Z,1.52
2022-12-25T07:19:23.562Z,1.60
2022-12-25T07:21:52.320Z,1.62
2022-12-25T07:24:21.705Z,1.65
2022-12-25T07:26:51.048Z,1.60
2022-12-25T07:29:22.868Z,1.65
2022-12-25T07:31:52.425Z,1.77
2022-12-25T07:34:23.217Z,1.98
2022-12-25T07:37:00.021Z,2.25
2022-12-25T07:39:28.511Z,2.46
2022-12-25T07:41:56.934Z,2.54
2022-12-25T07:44:25.535Z,2.26
2022-12-25T07:46:53.741Z,1.79
2022-12-25T07:49:22.700Z,1.60
2022-12-25T07:51:51.564Z,1.68
2022-12-25T07:54:22.481Z,1.61
2022-12-25T07:56:53.615Z,1.65
2022-12-25T07:59:24.971Z,1.83
2022-12-25T08:01:53.823Z,1.92
2022-12-25T08:04:23.968Z,2.16
2022-12-25T08:06:52.498Z,2.36
2022-12-25T08:09:23.508Z,2.50
2022-12-25T08:11:52.728Z,2.71
2022-12-25T08:14:21.175Z,2.87
2022-12-25T08:16:52.070Z,2.87
2022-12-25T08:19:24.414Z,2.91
2022-12-25T08:21:53.217Z,3.04
2022-12-25T08:24:26.100Z,3.05
2022-12-25T08:26:55.118Z,3.15
2022-12-25T08:29:24.621Z,3.27
2022-12-25T08:31:54.033Z,3.50
2022-12-25T08:34:24.064Z,3.70
2022-12-25T08:36:52.504Z,3.90
2022-12-25T08:39:23.041Z,4.08
2022-12-25T08:41:51.834Z,4.25
2022-12-25T08:44:20.546Z,4.43
2022-12-25T08:46:49.183Z,4.71
2022-12-25T08:49:21.237Z,4.79
2022-12-25T08:51:50.329Z,4.84
2022-12-25T08:54:18.847Z,4.97
2022-12-25T08:56:49.469Z,5.36
2022-12-25T08:59:19.779Z,5.66
2022-12-25T09:01:48.490Z,5.76
2022-12-25T09:04:17.113Z,5.91
2022-12-25T09:06:45.712Z,6.06
2022-12-25T09:09:16.428Z,6.31
2022-12-25T09:11:45.254Z,6.06
2022-12-25T09:14:15.460Z,6.20
2022-12-25T09:16:43.850Z,6.20
2022-12-25T09:19:12.335Z,6.34
2022-12-25T09:21:41.325Z,6.35
2022-12-25T09:24:10.054Z,6.61
2022-12-25T09:26:39.214Z,6.57
2022-12-25T09:29:08.046Z,6.71
2022-12-25T09:31:39.567Z,6.66
2022-12-25T09:34:10.445Z,6.79
2022-12-25T09:36:40.529Z,6.85
2022-12-25T09:39:10.017Z,7.11
2022-12-25T09:41:50.181Z,7.17
2022-12-25T09:44:24.718Z,7.11
2022-12-25T09:46:57.827Z,7.17
2022-12-25T09:49:37.348Z,7.20
2022-12-25T09:52:09.788Z,7.28
2022-12-25T09:54:46.137Z,7.25
2022-12-25T09:57:16.819Z,7.44
2022-12-25T09:59:47.543Z,7.61
2022-12-25T10:02:39.799Z,7.81
2022-12-25T10:05:34.281Z,8.00
2022-12-25T10:08:13.455Z,8.06
2022-12-25T10:10:51.204Z,8.24
2022-12-25T10:13:55.573Z,8.38
2022-12-25T10:16:37.362Z,8.61
2022-12-25T10:19:31.852Z,8.82
2022-12-25T10:22:05.138Z,9.10
2022-12-25T10:24:37.970Z,9.28
2022-12-25T10:27:13.724Z,9.51
2022-12-25T10:29:44.102Z,9.75
2022-12-25T10:32:12.585Z,9.84
2022-12-25T10:34:43.698Z,10.02
2022-12-25T10:37:14.749Z,9.89
2022-12-25T10:39:46.826Z,10.03
2022-12-25T10:42:20.945Z,10.01
2022-12-25T10:44:58.009Z,10.20
2022-12-25T10:47:29.232Z,10.08
2022-12-25T10:50:00.580Z,9.99
2022-12-25T10:52:31.086Z,10.08
2022-12-25T10:54:59.744Z,10.10
2022-12-25T10:57:29.851Z,10.25
2022-12-25T10:59:58.995Z,10.23
2022-12-25T11:02:29.429Z,10.25
2022-12-25T11:05:04.528Z,10.34
2022-12-25T11:07:34.648Z,10.29
2022-12-25T11:10:06.226Z,10.29
2022-12-25T11:12:39.044Z,10.39
2022-12-25T11:15:33.947Z,10.33
2022-12-25T11:18:02.740Z,10.54
2022-12-25T11:20:35.576Z,10.53
2022-12-25T11:23:11.115Z,10.84
2022-12-25T11:25:40.844Z,10.75
2022-12-25T11:28:13.646Z,10.87
2022-12-25T11:30:46.831Z,10.88
2022-12-25T11:33:17.076Z,10.90
2022-12-25T11:35:54.422Z,11.08
2022-12-25T11:38:24.793Z,11.04
2022-12-25T11:40:58.308Z,10.94
2022-12-25T11:43:31.585Z,11.12
2022-12-25T11:46:12.802Z,11.26
2022-12-25T11:48:56.072Z,11.40
2022-12-25T11:51:29.897Z,11.38
2022-12-25T11:54:02.134Z,11.36
2022-12-25T11:56:34.313Z,11.35
2022-12-25T11:59:08.011Z,11.50
2022-12-25T12:01:43.361Z,11.49
2022-12-25T12:04:24.308Z,11.47
2022-12-25T12:07:02.964Z,11.65
2022-12-25T12:09:42.416Z,11.53
2022-12-25T12:12:18.442Z,11.69
2022-12-25T12:14:55.185Z,11.84
2022-12-25T12:17:25.764Z,11.74
2022-12-25T12:19:54.477Z,11.59
2022-12-25T12:22:30.927Z,11.78
2022-12-25T12:25:06.689Z,11.87
2022-12-25T12:27:38.390Z,11.73
2022-12-25T12:30:09.295Z,11.74
2022-12-25T12:32:42.203Z,11.71
2022-12-25T12:35:19.792Z,11.84
2022-12-25T12:37:54.146Z,11.91
2022-12-25T12:40:31.470Z,11.91
2022-12-25T12:43:00.120Z,12.02
2022-12-25T12:45:34.986Z,11.97
2022-12-25T12:48:16.659Z,11.93
2022-12-25T12:50:46.457Z,12.10
2022-12-25T12:53:29.286Z,11.66
2022-12-25T12:55:58.374Z,11.65
2022-12-25T12:58:33.426Z,11.74
2022-12-25T13:01:12.879Z,11.40
2022-12-25T13:04:00.988Z,11.62
2022-12-25T13:06:35.930Z,11.43
2022-12-25T13:09:13.745Z,11.26
2022-12-25T13:11:44.848Z,11.12
2022-12-25T13:14:19.634Z,11.14
2022-12-25T13:16:49.758Z,11.05
2022-12-25T13:19:21.994Z,10.98
2022-12-25T13:21:56.993Z,10.92
2022-12-25T13:24:28.581Z,10.84
2022-12-25T13:26:57.353Z,10.73
2022-12-25T13:29:31.379Z,10.44
2022-12-25T13:32:03.357Z,10.60
2022-12-25T13:34:33.386Z,10.49
2022-12-25T13:37:11.523Z,10.47
2022-12-25T13:39:49.919Z,10.50
2022-12-25T13:42:27.243Z,10.39
2022-12-25T13:44:58.728Z,10.34
2022-12-25T13:47:31.182Z,10.25
2022-12-25T13:50:05.927Z,10.34
2022-12-25T13:52:36.701Z,10.26
2022-12-25T13:55:14.335Z,10.15
2022-12-25T13:57:45.658Z,10.22
2022-12-25T14:00:20.900Z,10.28
2022-12-25T14:02:50.182Z,10.26
2022-12-25T14:05:28.171Z,10.25
2022-12-25T14:07:59.876Z,10.19
2022-12-25T14:10:31.842Z,10.23
2022-12-25T14:13:03.404Z,10.25
2022-12-25T14:15:34.536Z,10.32
2022-12-25T14:18:04.620Z,10.16
2022-12-25T14:20:38.714Z,10.06
2022-12-25T14:23:09.198Z,9.98
2022-12-25T14:25:44.251Z,10.02
2022-12-25T14:28:20.781Z,10.06
2022-12-25T14:30:49.676Z,9.99
2022-12-25T14:33:21.606Z,9.85
2022-12-25T14:35:51.308Z,9.85
2022-12-25T14:38:26.114Z,9.78
2022-12-25T14:41:04.936Z,9.85
2022-12-25T14:43:34.660Z,9.70
2022-12-25T14:46:06.496Z,9.67
2022-12-25T14:48:34.890Z,9.74
2022-12-25T14:51:11.523Z,9.58
2022-12-25T14:53:48.631Z,9.47
2022-12-25T14:56:21.867Z,9.48
2022-12-25T14:58:53.012Z,9.50
2022-12-25T15:01:24.890Z,9.48
2022-12-25T15:03:53.714Z,9.55
2022-12-25T15:06:25.249Z,9.43
2022-12-25T15:08:58.193Z,9.44
2022-12-25T15:11:29.271Z,9.46
2022-12-25T15:13:57.823Z,9.43
2022-12-25T15:16:30.913Z,9.34
2022-12-25T15:19:02.609Z,9.33
2022-12-25T15:21:32.394Z,9.37
2022-12-25T15:24:01.610Z,9.30
2022-12-25T15:26:40.861Z,9.22
2022-12-25T15:29:10.024Z,9.26
2022-12-25T15:31:41.033Z,9.31
2022-12-25T15:34:17.951Z,9.23
2022-12-25T15:36:46.546Z,9.16
2022-12-25T15:39:16.189Z,9.17
2022-12-25T15:42:03.703Z,9.20
2022-12-25T15:44:32.188Z,9.22
2022-12-25T15:47:01.040Z,9.20
2022-12-25T15:49:35.773Z,9.16
2022-12-25T15:52:06.327Z,9.15
2022-12-25T15:54:34.875Z,9.07
2022-12-25T15:57:08.008Z,9.05
2022-12-25T15:59:36.348Z,8.93
2022-12-25T16:02:07.585Z,8.89
2022-12-25T16:04:36.412Z,8.99
2022-12-25T16:07:05.020Z,8.92
2022-12-25T16:09:33.336Z,8.89
2022-12-25T16:12:01.910Z,8.92
2022-12-25T16:14:33.411Z,8.88
2022-12-25T16:17:03.838Z,8.80
2022-12-25T16:19:32.717Z,8.85
2022-12-25T16:22:01.648Z,8.82
2022-12-25T16:24:30.362Z,8.82
2022-12-25T16:27:00.879Z,8.95
2022-12-25T16:29:29.477Z,8.89
2022-12-25T16:32:00.872Z,8.93
2022-12-25T16:34:31.055Z,8.93
2022-12-25T16:37:00.580Z,8.92
2022-12-25T16:39:38.637Z,8.88
2022-12-25T16:42:07.539Z,8.88
2022-12-25T16:44:40.216Z,8.82
2022-12-25T16:47:12.511Z,8.72
2022-12-25T16:49:41.664Z,8.72
2022-12-25T16:52:10.564Z,8.73
2022-12-25T16:54:39.427Z,8.69
2022-12-25T16:57:08.790Z,8.68
2022-12-25T16:59:39.023Z,8.71
2022-12-25T17:02:21.121Z,8.72
2022-12-25T17:04:49.906Z,8.72
2022-12-25T17:07:20.370Z,8.65
2022-12-25T17:09:49.589Z,8.64
2022-12-25T17:12:18.638Z,8.72
2022-12-25T17:14:47.147Z,8.76
2022-12-25T17:17:17.067Z,8.78
2022-12-25T17:19:45.794Z,8.73
2022-12-25T17:22:14.395Z,8.75
2022-12-25T17:24:42.874Z,8.79
2022-12-25T17:27:11.641Z,8.69
2022-12-25T17:29:41.171Z,8.71
2022-12-25T17:32:10.769Z,8.65
2022-12-25T17:34:42.457Z,8.71
2022-12-25T17:37:11.091Z,8.75
2022-12-25T17:39:40.133Z,8.72
2022-12-25T17:42:09.471Z,8.82
2022-12-25T17:44:38.231Z,8.80
2022-12-25T17:47:06.863Z,8.72
2022-12-25T17:49:36.143Z,8.69
2022-12-25T17:52:06.234Z,8.64
2022-12-25T17:54:34.980Z,8.64
2022-12-25T17:57:03.706Z,8.59
2022-12-25T17:59:31.914Z,8.64
2022-12-25T18:02:00.314Z,8.64
2022-12-25T18:04:30.726Z,8.61
2022-12-25T18:07:02.126Z,8.68
2022-12-25T18:09:31.936Z,8.61
2022-12-25T18:12:00.439Z,8.62
2022-12-25T18:14:29.237Z,8.64
2022-12-25T18:16:58.163Z,8.59
2022-12-25T18:19:26.754Z,8.44
2022-12-25T18:21:55.662Z,8.52
2022-12-25T18:24:26.244Z,8.61
2022-12-25T18:26:56.029Z,8.54
2022-12-25T18:29:27.899Z,8.50
2022-12-25T18:31:57.528Z,8.44
2022-12-25T18:34:26.689Z,8.37
2022-12-25T18:37:02.997Z,8.26
2022-12-25T18:39:31.620Z,8.13
2022-12-25T18:42:18.972Z,8.10
2022-12-25T18:44:48.446Z,8.07
2022-12-25T18:47:17.070Z,8.06
2022-12-25T18:49:46.941Z,8.07
2022-12-25T18:52:48.031Z,8.07
2022-12-25T18:55:04.363Z,7.92
2022-12-25T18:57:34.798Z,7.89
2022-12-25T19:00:05.481Z,7.93
2022-12-25T19:02:34.646Z,7.96
2022-12-25T19:05:03.921Z,8.06
2022-12-25T19:07:33.771Z,8.09
2022-12-25T19:10:04.146Z,8.20
2022-12-25T19:12:38.879Z,8.21
2022-12-25T19:15:09.736Z,8.20
2022-12-25T19:17:44.054Z,8.27
2022-12-25T19:20:13.296Z,8.30
2022-12-25T19:22:42.660Z,8.26
2022-12-25T19:25:11.400Z,8.30
2022-12-25T19:27:42.010Z,8.33
2022-12-25T19:30:12.260Z,8.37
2022-12-25T19:32:41.966Z,8.36
2022-12-25T19:35:11.864Z,8.33
2022-12-25T19:37:40.687Z,8.36
2022-12-25T19:40:10.373Z,8.34
2022-12-25T19:42:40.703Z,8.42
2022-12-25T19:45:12.480Z,8.50
2022-12-25T19:47:44.376Z,8.47
2022-12-25T19:50:13.191Z,8.44
2022-12-25T19:52:44.381Z,8.42
2022-12-25T19:55:13.241Z,8.42
2022-12-25T19:57:43.120Z,8.37
2022-12-25T20:00:11.926Z,8.40
2022-12-25T20:02:44.374Z,8.42
2022-12-25T20:05:13.557Z,8.51
2022-12-25T20:07:41.976Z,8.68
2022-12-25T20:10:10.891Z,8.68
2022-12-25T20:12:40.093Z,8.72
2022-12-25T20:15:11.341Z,8.75
2022-12-25T20:17:39.753Z,8.80
2022-12-25T20:20:09.317Z,8.79
2022-12-25T20:22:37.817Z,8.86
2022-12-25T20:25:09.094Z,8.93
2022-12-25T20:27:38.381Z,8.95
2022-12-25T20:30:10.610Z,9.06
2022-12-25T20:32:48.084Z,9.16
2022-12-25T20:35:19.714Z,9.10
2022-12-25T20:37:49.366Z,9.06
2022-12-25T20:40:20.528Z,9.15
2022-12-25T20:42:52.022Z,9.15
2022-12-25T20:45:22.649Z,9.17
2022-12-25T20:47:54.143Z,9.13
2022-12-25T20:50:22.924Z,9.24
2022-12-25T20:52:54.671Z,9.19
2022-12-25T20:55:26.119Z,9.38
2022-12-25T20:57:56.269Z,9.38
2022-12-25T21:00:31.372Z,9.36
2022-12-25T21:03:01.454Z,9.26
2022-12-25T21:05:31.468Z,9.16
2022-12-25T21:08:00.793Z,9.20
2022-12-25T21:10:30.970Z,9.10
2022-12-25T21:13:01.011Z,9.20
2022-12-25T21:15:31.894Z,9.10
2022-12-25T21:18:01.632Z,9.12
2022-12-25T21:20:30.420Z,9.09
2022-12-25T21:22:58.623Z,9.02
2022-12-25T21:25:31.620Z,9.02
2022-12-25T21:28:01.381Z,8.98
2022-12-25T21:30:36.810Z,9.00
2022-12-25T21:33:22.930Z,8.95
2022-12-25T21:35:52.820Z,8.92
2022-12-25T21:38:25.042Z,8.83
2022-12-25T21:40:54.009Z,8.73
2022-12-25T21:43:23.014Z,8.80
2022-12-25T21:45:54.373Z,8.89
2022-12-25T21:48:25.888Z,8.95
2022-12-25T21:51:13.767Z,8.92
2022-12-25T21:53:43.635Z,8.89
2022-12-25T21:56:12.935Z,8.83
2022-12-25T21:58:43.569Z,8.82
2022-12-25T22:01:18.923Z,8.80
2022-12-25T22:03:52.277Z,8.85
2022-12-25T22:06:38.602Z,8.85
2022-12-25T22:09:13.896Z,8.92
2022-12-25T22:12:00.877Z,8.88
2022-12-25T22:14:51.356Z,8.89
2022-12-25T22:17:43.463Z,8.78
2022-12-25T22:20:15.904Z,8.79
2022-12-25T22:22:48.178Z,8.68
2022-12-25T22:25:23.711Z,8.75
2022-12-25T22:27:54.162Z,8.69
2022-12-25T22:30:28.807Z,8.68
2022-12-25T22:32:59.953Z,8.59
2022-12-25T22:35:30.814Z,8.62
2022-12-25T22:38:02.821Z,8.58
2022-12-25T22:40:31.553Z,8.58
2022-12-25T22:43:04.366Z,8.58
2022-12-25T22:45:34.002Z,8.64
2022-12-25T22:48:05.297Z,8.61
2022-12-25T22:50:34.076Z,8.58
2022-12-25T22:53:02.297Z,8.50
2022-12-25T22:55:31.885Z,8.44
2022-12-25T22:58:07.418Z,8.38
2022-12-25T23:00:40.951Z,8.36
2022-12-25T23:03:20.191Z,8.29
2022-12-25T23:05:57.364Z,8.21
2022-12-25T23:08:26.139Z,8.17
2022-12-25T23:10:56.390Z,8.14
2022-12-25T23:13:52.421Z,8.11
2022-12-25T23:16:24.504Z,8.03
2022-12-25T23:19:13.811Z,7.94
2022-12-25T23:21:56.901Z,7.99
2022-12-25T23:24:46.778Z,7.90
2022-12-25T23:27:20.416Z,7.83
2022-12-25T23:29:51.197Z,7.81
2022-12-25T23:32:25.250Z,7.75
2022-12-25T23:34:56.010Z,7.75
2022-12-25T23:37:24.373Z,7.73
2022-12-25T23:39:55.134Z,7.72
2022-12-25T23:42:25.371Z,7.66
2022-12-25T23:44:55.180Z,7.72
2022-12-25T23:47:24.457Z,7.66
2022-12-25T23:49:58.124Z,7.63
2022-12-25T23:52:27.711Z,7.52
2022-12-25T23:54:57.151Z,7.51
2022-12-25T23:57:25.858Z,7.52
2022-12-25T23:59:54.698Z,7.50
